sensor_id;sensor_type;location;lat;lon;timestamp;temperature;humidity
2391;DHT22;22957;50.824;4.360;2022-12-10T00:01:24;3.80;99.90
2391;DHT22;22957;50.824;4.360;2022-12-10T00:03:51;4.00;99.90
2391;DHT22;22957;50.824;4.360;2022-12-10T00:06:19;4.00;99.90
2391;DHT22;22957;50.824;4.360;2022-12-10T00:08:46;4.00;99.90
2391;DHT22;22957;50.824;4.360;2022-12-10T00:11:13;4.20;99.90
2391;DHT22;22957;50.824;4.360;2022-12-10T00:13:40;4.20;99.90
2391;DHT22;22957;50.824;4.360;2022-12-10T00:16:08;3.80;99.90
2391;DHT22;22957;50.824;4.360;2022-12-10T00:18:35;3.70;99.90
2391;DHT22;22957;50.824;4.360;2022-12-10T00:21:05;3.80;99.90
2391;DHT22;22957;50.824;4.360;2022-12-10T00:23:32;4.50;99.90
2391;DHT22;22957;50.824;4.360;2022-12-10T00:26:05;4.10;99.90
2391;DHT22;22957;50.824;4.360;2022-12-10T00:28:31;3.70;99.90
2391;DHT22;22957;50.824;4.360;2022-12-10T00:31:02;3.60;99.90
2391;DHT22;22957;50.824;4.360;2022-12-10T00:33:28;3.70;99.90
2391;DHT22;22957;50.824;4.360;2022-12-10T00:35:54;3.80;99.90
2391;DHT22;22957;50.824;4.360;2022-12-10T00:38:20;4.00;99.90
2391;DHT22;22957;50.824;4.360;2022-12-10T00:40:45;4.20;99.90
2391;DHT22;22957;50.824;4.360;2022-12-10T00:43:11;3.60;99.90
2391;DHT22;22957;50.824;4.360;2022-12-10T00:45:37;4.00;99.90
2391;DHT22;22957;50.824;4.360;2022-12-10T00:48:02;3.80;99.90
2391;DHT22;22957;50.824;4.360;2022-12-10T00:50:28;3.60;99.90
2391;DHT22;22957;50.824;4.360;2022-12-10T00:52:54;3.40;99.90
2391;DHT22;22957;50.824;4.360;2022-12-10T00:55:19;3.60;99.90
2391;DHT22;22957;50.824;4.360;2022-12-10T00:57:45;3.70;99.90
2391;DHT22;22957;50.824;4.360;2022-12-10T01:00:11;4.00;99.90
2391;DHT22;22957;50.824;4.360;2022-12-10T01:02:38;4.10;99.90
2391;DHT22;22957;50.824;4.360;2022-12-10T01:05:04;4.40;99.90
2391;DHT22;22957;50.824;4.360;2022-12-10T01:07:30;4.20;99.90
2391;DHT22;22957;50.824;4.360;2022-12-10T01:09:56;3.80;99.90
2391;DHT22;22957;50.824;4.360;2022-12-10T01:12:21;3.90;99.90
2391;DHT22;22957;50.824;4.360;2022-12-10T01:14:49;4.00;99.90
2391;DHT22;22957;50.824;4.360;2022-12-10T01:17:14;4.10;99.90
2391;DHT22;22957;50.824;4.360;2022-12-10T01:19:40;3.80;99.90
2391;DHT22;22957;50.824;4.360;2022-12-10T01:22:06;3.80;99.90
2391;DHT22;22957;50.824;4.360;2022-12-10T01:24:31;3.60;99.90
2391;DHT22;22957;50.824;4.360;2022-12-10T01:26:57;4.00;99.90
2391;DHT22;22957;50.824;4.360;2022-12-10T01:29:23;4.00;99.90
2391;DHT22;22957;50.824;4.360;2022-12-10T01:31:54;3.80;99.90
2391;DHT22;22957;50.824;4.360;2022-12-10T01:34:20;4.00;99.90
2391;DHT22;22957;50.824;4.360;2022-12-10T01:36:50;4.10;99.90
2391;DHT22;22957;50.824;4.360;2022-12-10T01:39:17;4.00;99.90
2391;DHT22;22957;50.824;4.360;2022-12-10T01:41:51;3.60;99.90
2391;DHT22;22957;50.824;4.360;2022-12-10T01:46:44;4.00;99.90
2391;DHT22;22957;50.824;4.360;2022-12-10T01:49:20;4.00;99.90
2391;DHT22;22957;50.824;4.360;2022-12-10T01:51:48;4.10;99.90
2391;DHT22;22957;50.824;4.360;2022-12-10T01:54:18;4.30;99.90
2391;DHT22;22957;50.824;4.360;2022-12-10T01:56:47;4.00;99.90
2391;DHT22;22957;50.824;4.360;2022-12-10T01:59:13;3.70;99.90
2391;DHT22;22957;50.824;4.360;2022-12-10T02:02:15;3.10;99.90
2391;DHT22;22957;50.824;4.360;2022-12-10T02:13:19;3.50;99.90
2391;DHT22;22957;50.824;4.360;2022-12-10T02:15:52;3.70;99.90
2391;DHT22;22957;50.824;4.360;2022-12-10T02:18:26;3.80;99.90
2391;DHT22;22957;50.824;4.360;2022-12-10T02:20:57;3.60;99.90
2391;DHT22;22957;50.824;4.360;2022-12-10T02:23:28;3.80;99.90
2391;DHT22;22957;50.824;4.360;2022-12-10T02:31:25;3.40;99.90
2391;DHT22;22957;50.824;4.360;2022-12-10T02:33:56;3.60;99.90
2391;DHT22;22957;50.824;4.360;2022-12-10T02:36:25;3.90;99.90
2391;DHT22;22957;50.824;4.360;2022-12-10T02:38:54;3.80;99.90
2391;DHT22;22957;50.824;4.360;2022-12-10T02:41:28;3.60;99.90
2391;DHT22;22957;50.824;4.360;2022-12-10T02:43:59;4.00;99.90
2391;DHT22;22957;50.824;4.360;2022-12-10T02:46:27;4.10;99.90
2391;DHT22;22957;50.824;4.360;2022-12-10T02:48:55;3.60;99.90
2391;DHT22;22957;50.824;4.360;2022-12-10T02:51:22;3.90;99.90
2391;DHT22;22957;50.824;4.360;2022-12-10T02:54:05;3.70;99.90
2391;DHT22;22957;50.824;4.360;2022-12-10T02:56:42;3.40;99.90
2391;DHT22;22957;50.824;4.360;2022-12-10T02:59:22;3.20;99.90
2391;DHT22;22957;50.824;4.360;2022-12-10T03:07:19;2.90;99.90
2391;DHT22;22957;50.824;4.360;2022-12-10T03:09:52;3.50;99.90
2391;DHT22;22957;50.824;4.360;2022-12-10T03:12:28;3.10;99.90
2391;DHT22;22957;50.824;4.360;2022-12-10T03:15:03;3.10;99.90
2391;DHT22;22957;50.824;4.360;2022-12-10T03:17:30;3.00;99.90
2391;DHT22;22957;50.824;4.360;2022-12-10T03:19:57;3.20;99.90
2391;DHT22;22957;50.824;4.360;2022-12-10T03:22:24;3.60;99.90
2391;DHT22;22957;50.824;4.360;2022-12-10T03:24:50;3.30;99.90
2391;DHT22;22957;50.824;4.360;2022-12-10T03:27:19;3.10;99.90
2391;DHT22;22957;50.824;4.360;2022-12-10T03:29:50;3.30;99.90
2391;DHT22;22957;50.824;4.360;2022-12-10T03:32:18;3.40;99.90
2391;DHT22;22957;50.824;4.360;2022-12-10T03:34:46;3.40;99.90
2391;DHT22;22957;50.824;4.360;2022-12-10T03:37:13;3.30;99.90
2391;DHT22;22957;50.824;4.360;2022-12-10T03:39:40;3.00;99.90
2391;DHT22;22957;50.824;4.360;2022-12-10T03:42:06;2.70;99.90
2391;DHT22;22957;50.824;4.360;2022-12-10T03:44:34;3.50;99.90
2391;DHT22;22957;50.824;4.360;2022-12-10T03:47:01;3.10;99.90
2391;DHT22;22957;50.824;4.360;2022-12-10T03:49:27;3.50;99.90
2391;DHT22;22957;50.824;4.360;2022-12-10T03:51:53;3.70;99.90
2391;DHT22;22957;50.824;4.360;2022-12-10T03:54:18;3.40;99.90
2391;DHT22;22957;50.824;4.360;2022-12-10T03:56:44;3.90;99.90
2391;DHT22;22957;50.824;4.360;2022-12-10T03:59:10;3.60;99.90
2391;DHT22;22957;50.824;4.360;2022-12-10T04:01:35;3.70;99.90
2391;DHT22;22957;50.824;4.360;2022-12-10T04:04:03;3.80;99.90
2391;DHT22;22957;50.824;4.360;2022-12-10T04:06:29;3.70;99.90
2391;DHT22;22957;50.824;4.360;2022-12-10T04:08:54;3.20;99.90
2391;DHT22;22957;50.824;4.360;2022-12-10T04:11:20;2.90;99.90
2391;DHT22;22957;50.824;4.360;2022-12-10T04:13:46;3.40;99.90
2391;DHT22;22957;50.824;4.360;2022-12-10T04:16:31;3.60;99.90
2391;DHT22;22957;50.824;4.360;2022-12-10T04:19:03;4.00;99.90
2391;DHT22;22957;50.824;4.360;2022-12-10T04:21:31;3.70;99.90
2391;DHT22;22957;50.824;4.360;2022-12-10T04:24:16;3.80;99.90
2391;DHT22;22957;50.824;4.360;2022-12-10T04:27:05;3.80;99.90
2391;DHT22;22957;50.824;4.360;2022-12-10T04:29:31;4.00;99.90
2391;DHT22;22957;50.824;4.360;2022-12-10T04:31:58;3.80;99.90
2391;DHT22;22957;50.824;4.360;2022-12-10T04:34:24;3.50;99.90
2391;DHT22;22957;50.824;4.360;2022-12-10T04:36:50;4.00;99.90
2391;DHT22;22957;50.824;4.360;2022-12-10T04:39:17;3.90;99.90
2391;DHT22;22957;50.824;4.360;2022-12-10T04:41:47;3.90;99.90
2391;DHT22;22957;50.824;4.360;2022-12-10T04:44:13;3.50;99.90
2391;DHT22;22957;50.824;4.360;2022-12-10T04:46:38;3.60;99.90
2391;DHT22;22957;50.824;4.360;2022-12-10T04:49:05;3.70;99.90
2391;DHT22;22957;50.824;4.360;2022-12-10T04:51:31;3.80;99.90
2391;DHT22;22957;50.824;4.360;2022-12-10T04:53:57;3.80;99.90
2391;DHT22;22957;50.824;4.360;2022-12-10T04:56:23;3.30;99.90
2391;DHT22;22957;50.824;4.360;2022-12-10T04:58:49;3.90;99.90
2391;DHT22;22957;50.824;4.360;2022-12-10T05:01:15;4.20;99.90
2391;DHT22;22957;50.824;4.360;2022-12-10T05:03:41;4.20;99.90
2391;DHT22;22957;50.824;4.360;2022-12-10T05:06:10;4.50;99.90
2391;DHT22;22957;50.824;4.360;2022-12-10T05:08:37;4.40;99.90
2391;DHT22;22957;50.824;4.360;2022-12-10T05:11:38;4.30;99.90
2391;DHT22;22957;50.824;4.360;2022-12-10T05:13:57;4.30;99.90
2391;DHT22;22957;50.824;4.360;2022-12-10T05:16:26;3.80;99.90
2391;DHT22;22957;50.824;4.360;2022-12-10T05:18:53;3.70;99.90
2391;DHT22;22957;50.824;4.360;2022-12-10T05:21:20;3.70;99.90
2391;DHT22;22957;50.824;4.360;2022-12-10T05:23:48;4.10;99.90
2391;DHT22;22957;50.824;4.360;2022-12-10T05:26:24;4.20;99.90
2391;DHT22;22957;50.824;4.360;2022-12-10T05:28:52;4.00;99.90
2391;DHT22;22957;50.824;4.360;2022-12-10T05:31:26;3.60;99.90
2391;DHT22;22957;50.824;4.360;2022-12-10T05:33:54;3.80;99.90
2391;DHT22;22957;50.824;4.360;2022-12-10T05:36:23;3.60;99.90
2391;DHT22;22957;50.824;4.360;2022-12-10T05:38:50;3.20;99.90
2391;DHT22;22957;50.824;4.360;2022-12-10T05:41:22;3.20;99.90
2391;DHT22;22957;50.824;4.360;2022-12-10T05:43:49;3.80;99.90
2391;DHT22;22957;50.824;4.360;2022-12-10T05:46:18;3.40;99.90
2391;DHT22;22957;50.824;4.360;2022-12-10T05:48:44;3.70;99.90
2391;DHT22;22957;50.824;4.360;2022-12-10T05:51:11;3.90;99.90
2391;DHT22;22957;50.824;4.360;2022-12-10T05:53:38;3.60;99.90
2391;DHT22;22957;50.824;4.360;2022-12-10T05:56:10;3.70;99.90
2391;DHT22;22957;50.824;4.360;2022-12-10T05:58:36;3.50;99.90
2391;DHT22;22957;50.824;4.360;2022-12-10T06:01:07;3.80;99.90
2391;DHT22;22957;50.824;4.360;2022-12-10T06:03:33;3.80;99.90
2391;DHT22;22957;50.824;4.360;2022-12-10T06:05:59;3.50;99.90
2391;DHT22;22957;50.824;4.360;2022-12-10T06:08:25;3.40;99.90
2391;DHT22;22957;50.824;4.360;2022-12-10T06:10:51;3.50;99.90
2391;DHT22;22957;50.824;4.360;2022-12-10T06:13:16;3.80;99.90
2391;DHT22;22957;50.824;4.360;2022-12-10T06:15:42;4.20;99.90
2391;DHT22;22957;50.824;4.360;2022-12-10T06:18:08;3.90;99.90
2391;DHT22;22957;50.824;4.360;2022-12-10T06:20:37;3.70;99.90
2391;DHT22;22957;50.824;4.360;2022-12-10T06:23:03;3.70;99.90
2391;DHT22;22957;50.824;4.360;2022-12-10T06:25:29;4.20;99.90
2391;DHT22;22957;50.824;4.360;2022-12-10T06:27:54;3.90;99.90
2391;DHT22;22957;50.824;4.360;2022-12-10T06:30:20;4.00;99.90
2391;DHT22;22957;50.824;4.360;2022-12-10T06:32:46;4.10;99.90
2391;DHT22;22957;50.824;4.360;2022-12-10T06:35:12;4.00;99.90
2391;DHT22;22957;50.824;4.360;2022-12-10T06:37:37;4.20;99.90
2391;DHT22;22957;50.824;4.360;2022-12-10T06:40:04;4.20;99.90
2391;DHT22;22957;50.824;4.360;2022-12-10T06:42:30;4.20;99.90
2391;DHT22;22957;50.824;4.360;2022-12-10T06:44:56;3.80;99.90
2391;DHT22;22957;50.824;4.360;2022-12-10T06:47:22;4.00;99.90
2391;DHT22;22957;50.824;4.360;2022-12-10T06:49:48;4.10;99.90
2391;DHT22;22957;50.824;4.360;2022-12-10T06:52:14;3.80;99.90
2391;DHT22;22957;50.824;4.360;2022-12-10T06:54:40;4.10;99.90
2391;DHT22;22957;50.824;4.360;2022-12-10T06:57:06;3.80;99.90
2391;DHT22;22957;50.824;4.360;2022-12-10T06:59:31;3.60;99.90
2391;DHT22;22957;50.824;4.360;2022-12-10T07:01:57;3.40;99.90
2391;DHT22;22957;50.824;4.360;2022-12-10T07:04:26;3.70;99.90
2391;DHT22;22957;50.824;4.360;2022-12-10T07:06:52;4.00;99.90
2391;DHT22;22957;50.824;4.360;2022-12-10T07:09:17;3.80;99.90
2391;DHT22;22957;50.824;4.360;2022-12-10T07:11:43;4.10;99.90
2391;DHT22;22957;50.824;4.360;2022-12-10T07:14:14;4.10;99.90
2391;DHT22;22957;50.824;4.360;2022-12-10T07:16:41;3.80;99.90
2391;DHT22;22957;50.824;4.360;2022-12-10T07:19:10;3.70;99.90
2391;DHT22;22957;50.824;4.360;2022-12-10T07:21:39;3.60;99.90
2391;DHT22;22957;50.824;4.360;2022-12-10T07:24:08;3.70;99.90
2391;DHT22;22957;50.824;4.360;2022-12-10T07:26:37;3.80;99.90
2391;DHT22;22957;50.824;4.360;2022-12-10T07:29:05;3.80;99.90
2391;DHT22;22957;50.824;4.360;2022-12-10T07:31:31;3.60;99.90
2391;DHT22;22957;50.824;4.360;2022-12-10T07:33:58;3.40;99.90
2391;DHT22;22957;50.824;4.360;2022-12-10T07:36:25;3.40;99.90
2391;DHT22;22957;50.824;4.360;2022-12-10T07:38:52;3.20;99.90
2391;DHT22;22957;50.824;4.360;2022-12-10T07:41:18;3.50;99.90
2391;DHT22;22957;50.824;4.360;2022-12-10T07:43:45;3.80;99.90
2391;DHT22;22957;50.824;4.360;2022-12-10T07:46:16;3.90;99.90
2391;DHT22;22957;50.824;4.360;2022-12-10T07:48:43;3.40;99.90
2391;DHT22;22957;50.824;4.360;2022-12-10T07:51:10;3.80;99.90
2391;DHT22;22957;50.824;4.360;2022-12-10T07:53:36;3.90;99.90
2391;DHT22;22957;50.824;4.360;2022-12-10T07:56:03;3.60;99.90
2391;DHT22;22957;50.824;4.360;2022-12-10T07:58:29;3.60;99.90
2391;DHT22;22957;50.824;4.360;2022-12-10T08:00:54;3.40;99.90
2391;DHT22;22957;50.824;4.360;2022-12-10T08:03:20;3.30;99.90
2391;DHT22;22957;50.824;4.360;2022-12-10T08:05:46;3.20;99.90
2391;DHT22;22957;50.824;4.360;2022-12-10T08:08:12;3.30;99.90
2391;DHT22;22957;50.824;4.360;2022-12-10T08:10:38;3.20;99.90
2391;DHT22;22957;50.824;4.360;2022-12-10T08:13:05;3.50;99.90
2391;DHT22;22957;50.824;4.360;2022-12-10T08:15:32;3.40;99.90
2391;DHT22;22957;50.824;4.360;2022-12-10T08:17:58;3.60;99.90
2391;DHT22;22957;50.824;4.360;2022-12-10T08:20:25;3.70;99.90
2391;DHT22;22957;50.824;4.360;2022-12-10T08:22:51;3.60;99.90
2391;DHT22;22957;50.824;4.360;2022-12-10T08:25:18;3.90;99.90
2391;DHT22;22957;50.824;4.360;2022-12-10T08:27:44;4.00;99.90
2391;DHT22;22957;50.824;4.360;2022-12-10T08:30:10;3.40;99.90
2391;DHT22;22957;50.824;4.360;2022-12-10T08:32:35;3.60;99.90
2391;DHT22;22957;50.824;4.360;2022-12-10T08:35:01;3.00;99.90
2391;DHT22;22957;50.824;4.360;2022-12-10T08:37:27;3.60;99.90
2391;DHT22;22957;50.824;4.360;2022-12-10T08:39:53;3.60;99.90
2391;DHT22;22957;50.824;4.360;2022-12-10T08:42:18;3.40;99.90
2391;DHT22;22957;50.824;4.360;2022-12-10T08:44:44;2.90;99.90
2391;DHT22;22957;50.824;4.360;2022-12-10T08:47:10;2.80;99.90
2391;DHT22;22957;50.824;4.360;2022-12-10T08:49:36;3.00;99.90
2391;DHT22;22957;50.824;4.360;2022-12-10T08:52:02;3.20;99.90
2391;DHT22;22957;50.824;4.360;2022-12-10T08:54:27;3.50;99.90
2391;DHT22;22957;50.824;4.360;2022-12-10T08:56:53;3.60;99.90
2391;DHT22;22957;50.824;4.360;2022-12-10T08:59:19;3.50;99.90
2391;DHT22;22957;50.824;4.360;2022-12-10T09:01:46;2.90;99.90
2391;DHT22;22957;50.824;4.360;2022-12-10T09:04:11;3.20;99.90
2391;DHT22;22957;50.824;4.360;2022-12-10T09:06:38;3.60;99.90
2391;DHT22;22957;50.824;4.360;2022-12-10T09:09:03;3.90;99.90
2391;DHT22;22957;50.824;4.360;2022-12-10T09:11:32;3.60;99.90
2391;DHT22;22957;50.824;4.360;2022-12-10T09:13:58;3.80;99.90
2391;DHT22;22957;50.824;4.360;2022-12-10T09:16:35;3.70;99.90
2391;DHT22;22957;50.824;4.360;2022-12-10T09:19:03;3.50;99.90
2391;DHT22;22957;50.824;4.360;2022-12-10T09:21:30;3.60;99.90
2391;DHT22;22957;50.824;4.360;2022-12-10T09:23:58;3.20;99.90
2391;DHT22;22957;50.824;4.360;2022-12-10T09:26:24;3.70;99.90
2391;DHT22;22957;50.824;4.360;2022-12-10T09:28:51;4.10;99.90
2391;DHT22;22957;50.824;4.360;2022-12-10T09:31:18;4.20;99.90
2391;DHT22;22957;50.824;4.360;2022-12-10T09:33:45;4.30;99.90
2391;DHT22;22957;50.824;4.360;2022-12-10T09:36:13;4.40;99.90
2391;DHT22;22957;50.824;4.360;2022-12-10T09:38:40;4.30;99.90
2391;DHT22;22957;50.824;4.360;2022-12-10T09:44:05;4.50;99.90
2391;DHT22;22957;50.824;4.360;2022-12-10T09:46:48;4.90;99.90
2391;DHT22;22957;50.824;4.360;2022-12-10T09:52:04;4.70;99.90
2391;DHT22;22957;50.824;4.360;2022-12-10T09:54:38;4.50;99.90
2391;DHT22;22957;50.824;4.360;2022-12-10T09:57:06;4.40;99.90
2391;DHT22;22957;50.824;4.360;2022-12-10T09:59:42;4.40;99.90
2391;DHT22;22957;50.824;4.360;2022-12-10T10:02:22;4.20;99.90
2391;DHT22;22957;50.824;4.360;2022-12-10T10:05:01;4.40;99.90
2391;DHT22;22957;50.824;4.360;2022-12-10T10:07:45;4.00;99.90
2391;DHT22;22957;50.824;4.360;2022-12-10T10:10:33;4.00;99.90
2391;DHT22;22957;50.824;4.360;2022-12-10T10:15:36;5.20;99.90
2391;DHT22;22957;50.824;4.360;2022-12-10T10:18:16;5.20;99.90
2391;DHT22;22957;50.824;4.360;2022-12-10T10:20:43;4.90;99.90
2391;DHT22;22957;50.824;4.360;2022-12-10T10:23:13;5.00;99.90
2391;DHT22;22957;50.824;4.360;2022-12-10T10:25:39;4.50;99.90
2391;DHT22;22957;50.824;4.360;2022-12-10T10:28:05;4.50;99.90
2391;DHT22;22957;50.824;4.360;2022-12-10T10:30:31;4.50;99.90
2391;DHT22;22957;50.824;4.360;2022-12-10T10:32:57;4.80;99.90
2391;DHT22;22957;50.824;4.360;2022-12-10T10:35:33;4.90;99.90
2391;DHT22;22957;50.824;4.360;2022-12-10T10:38:07;5.10;99.90
2391;DHT22;22957;50.824;4.360;2022-12-10T10:40:43;5.30;99.90
2391;DHT22;22957;50.824;4.360;2022-12-10T10:43:39;4.90;99.90
2391;DHT22;22957;50.824;4.360;2022-12-10T10:46:12;4.80;99.90
2391;DHT22;22957;50.824;4.360;2022-12-10T10:48:39;4.60;99.90
2391;DHT22;22957;50.824;4.360;2022-12-10T10:51:23;4.80;99.90
2391;DHT22;22957;50.824;4.360;2022-12-10T10:53:56;5.40;99.90
2391;DHT22;22957;50.824;4.360;2022-12-10T10:56:28;5.80;99.90
2391;DHT22;22957;50.824;4.360;2022-12-10T11:01:51;5.60;99.90
2391;DHT22;22957;50.824;4.360;2022-12-10T11:04:24;5.60;99.90
2391;DHT22;22957;50.824;4.360;2022-12-10T11:06:55;6.20;99.90
2391;DHT22;22957;50.824;4.360;2022-12-10T11:09:27;5.70;99.90
2391;DHT22;22957;50.824;4.360;2022-12-10T11:12:01;6.00;99.90
2391;DHT22;22957;50.824;4.360;2022-12-10T11:14:31;6.20;99.90
2391;DHT22;22957;50.824;4.360;2022-12-10T11:17:23;5.80;99.90
2391;DHT22;22957;50.824;4.360;2022-12-10T11:22:58;4.20;99.90
2391;DHT22;22957;50.824;4.360;2022-12-10T11:30:36;4.60;99.90
2391;DHT22;22957;50.824;4.360;2022-12-10T11:33:21;4.40;99.90
2391;DHT22;22957;50.824;4.360;2022-12-10T11:57:38;5.00;99.90
2391;DHT22;22957;50.824;4.360;2022-12-10T12:05:48;4.10;99.90
2391;DHT22;22957;50.824;4.360;2022-12-10T12:09:05;4.30;99.90
2391;DHT22;22957;50.824;4.360;2022-12-10T12:14:16;5.50;99.90
2391;DHT22;22957;50.824;4.360;2022-12-10T12:19:39;4.80;99.90
2391;DHT22;22957;50.824;4.360;2022-12-10T12:22:14;5.40;99.90
2391;DHT22;22957;50.824;4.360;2022-12-10T12:24:42;5.00;99.90
2391;DHT22;22957;50.824;4.360;2022-12-10T12:27:35;5.50;99.90
2391;DHT22;22957;50.824;4.360;2022-12-10T12:30:10;5.30;99.90
2391;DHT22;22957;50.824;4.360;2022-12-10T12:35:16;5.30;99.90
2391;DHT22;22957;50.824;4.360;2022-12-10T12:37:59;4.90;99.90
2391;DHT22;22957;50.824;4.360;2022-12-10T12:40:30;5.80;99.90
2391;DHT22;22957;50.824;4.360;2022-12-10T12:43:08;5.70;99.90
2391;DHT22;22957;50.824;4.360;2022-12-10T12:45:45;5.50;99.90
2391;DHT22;22957;50.824;4.360;2022-12-10T12:48:32;5.80;99.90
2391;DHT22;22957;50.824;4.360;2022-12-10T12:51:06;5.50;99.90
2391;DHT22;22957;50.824;4.360;2022-12-10T12:53:35;5.30;99.90
2391;DHT22;22957;50.824;4.360;2022-12-10T13:01:30;4.60;99.90
2391;DHT22;22957;50.824;4.360;2022-12-10T13:03:57;5.00;99.90
2391;DHT22;22957;50.824;4.360;2022-12-10T13:06:31;5.70;99.90
2391;DHT22;22957;50.824;4.360;2022-12-10T13:11:44;5.20;99.90
2391;DHT22;22957;50.824;4.360;2022-12-10T13:22:39;5.20;99.90
2391;DHT22;22957;50.824;4.360;2022-12-10T13:25:14;5.10;99.90
2391;DHT22;22957;50.824;4.360;2022-12-10T13:27:41;5.00;99.90
2391;DHT22;22957;50.824;4.360;2022-12-10T13:48:46;6.30;99.90
2391;DHT22;22957;50.824;4.360;2022-12-10T13:51:38;6.00;99.90
2391;DHT22;22957;50.824;4.360;2022-12-10T14:00:18;5.20;99.90
2391;DHT22;22957;50.824;4.360;2022-12-10T14:03:33;5.50;99.90
2391;DHT22;22957;50.824;4.360;2022-12-10T14:06:20;5.10;99.90
2391;DHT22;22957;50.824;4.360;2022-12-10T14:08:57;5.10;99.90
2391;DHT22;22957;50.824;4.360;2022-12-10T14:11:34;5.50;99.90
2391;DHT22;22957;50.824;4.360;2022-12-10T14:14:02;5.30;99.90
2391;DHT22;22957;50.824;4.360;2022-12-10T14:16:32;4.80;99.90
2391;DHT22;22957;50.824;4.360;2022-12-10T14:19:05;5.20;99.90
2391;DHT22;22957;50.824;4.360;2022-12-10T14:21:34;5.50;99.90
2391;DHT22;22957;50.824;4.360;2022-12-10T14:24:04;5.40;99.90
2391;DHT22;22957;50.824;4.360;2022-12-10T14:26:32;5.70;99.90
2391;DHT22;22957;50.824;4.360;2022-12-10T14:29:23;5.10;99.90
2391;DHT22;22957;50.824;4.360;2022-12-10T14:31:50;5.70;99.90
2391;DHT22;22957;50.824;4.360;2022-12-10T14:34:24;5.30;99.90
2391;DHT22;22957;50.824;4.360;2022-12-10T14:36:52;5.00;99.90
2391;DHT22;22957;50.824;4.360;2022-12-10T14:39:32;5.00;99.90
2391;DHT22;22957;50.824;4.360;2022-12-10T14:42:02;5.50;99.90
2391;DHT22;22957;50.824;4.360;2022-12-10T14:44:30;5.50;99.90
2391;DHT22;22957;50.824;4.360;2022-12-10T14:47:12;5.60;99.90
2391;DHT22;22957;50.824;4.360;2022-12-10T14:49:49;5.20;99.90
2391;DHT22;22957;50.824;4.360;2022-12-10T14:52:32;5.10;99.90
2391;DHT22;22957;50.824;4.360;2022-12-10T14:55:01;5.70;99.90
2391;DHT22;22957;50.824;4.360;2022-12-10T14:57:35;5.00;99.90
2391;DHT22;22957;50.824;4.360;2022-12-10T15:00:12;5.30;99.90
2391;DHT22;22957;50.824;4.360;2022-12-10T15:02:41;5.10;99.90
2391;DHT22;22957;50.824;4.360;2022-12-10T15:05:16;5.10;99.90
2391;DHT22;22957;50.824;4.360;2022-12-10T15:08:03;4.70;99.90
2391;DHT22;22957;50.824;4.360;2022-12-10T15:10:51;5.40;99.90
2391;DHT22;22957;50.824;4.360;2022-12-10T15:13:33;5.00;99.90
2391;DHT22;22957;50.824;4.360;2022-12-10T15:16:03;5.00;99.90
2391;DHT22;22957;50.824;4.360;2022-12-10T15:18:37;5.40;99.90
2391;DHT22;22957;50.824;4.360;2022-12-10T15:26:32;4.90;99.90
2391;DHT22;22957;50.824;4.360;2022-12-10T15:31:59;4.60;99.90
2391;DHT22;22957;50.824;4.360;2022-12-10T15:34:29;4.40;99.90
2391;DHT22;22957;50.824;4.360;2022-12-10T15:37:03;4.20;99.90
2391;DHT22;22957;50.824;4.360;2022-12-10T15:39:31;4.30;99.90
2391;DHT22;22957;50.824;4.360;2022-12-10T15:45:36;5.00;99.90
2391;DHT22;22957;50.824;4.360;2022-12-10T15:48:12;5.40;99.90
2391;DHT22;22957;50.824;4.360;2022-12-10T15:50:51;5.80;99.90
2391;DHT22;22957;50.824;4.360;2022-12-10T15:53:34;5.50;99.90
2391;DHT22;22957;50.824;4.360;2022-12-10T15:56:00;5.30;99.90
2391;DHT22;22957;50.824;4.360;2022-12-10T15:58:29;5.60;99.90
2391;DHT22;22957;50.824;4.360;2022-12-10T16:00:55;5.60;99.90
2391;DHT22;22957;50.824;4.360;2022-12-10T16:03:32;5.30;99.90
2391;DHT22;22957;50.824;4.360;2022-12-10T16:06:19;4.90;99.90
2391;DHT22;22957;50.824;4.360;2022-12-10T16:08:45;5.40;99.90
2391;DHT22;22957;50.824;4.360;2022-12-10T16:11:19;5.70;99.90
2391;DHT22;22957;50.824;4.360;2022-12-10T16:16:38;5.50;99.90
2391;DHT22;22957;50.824;4.360;2022-12-10T16:19:10;5.40;99.90
2391;DHT22;22957;50.824;4.360;2022-12-10T16:22:11;5.50;99.90
2391;DHT22;22957;50.824;4.360;2022-12-10T16:24:40;5.10;99.90
2391;DHT22;22957;50.824;4.360;2022-12-10T16:27:12;5.40;99.90
2391;DHT22;22957;50.824;4.360;2022-12-10T16:29:39;6.10;99.90
2391;DHT22;22957;50.824;4.360;2022-12-10T16:32:05;6.00;99.90
2391;DHT22;22957;50.824;4.360;2022-12-10T16:34:30;5.50;99.90
2391;DHT22;22957;50.824;4.360;2022-12-10T16:36:56;5.40;99.90
2391;DHT22;22957;50.824;4.360;2022-12-10T16:39:22;5.40;99.90
2391;DHT22;22957;50.824;4.360;2022-12-10T16:41:55;5.60;99.90
2391;DHT22;22957;50.824;4.360;2022-12-10T16:44:23;5.30;99.90
2391;DHT22;22957;50.824;4.360;2022-12-10T16:46:49;5.20;99.90
2391;DHT22;22957;50.824;4.360;2022-12-10T16:49:17;5.30;99.90
2391;DHT22;22957;50.824;4.360;2022-12-10T16:51:49;5.10;99.90
2391;DHT22;22957;50.824;4.360;2022-12-10T16:54:15;5.20;99.90
2391;DHT22;22957;50.824;4.360;2022-12-10T16:56:49;4.80;99.90
2391;DHT22;22957;50.824;4.360;2022-12-10T16:59:15;4.70;99.90
2391;DHT22;22957;50.824;4.360;2022-12-10T17:01:41;4.90;99.90
2391;DHT22;22957;50.824;4.360;2022-12-10T17:04:14;4.70;99.90
2391;DHT22;22957;50.824;4.360;2022-12-10T17:06:45;5.10;99.90
2391;DHT22;22957;50.824;4.360;2022-12-10T17:09:13;5.00;99.90
2391;DHT22;22957;50.824;4.360;2022-12-10T17:11:42;5.30;99.90
2391;DHT22;22957;50.824;4.360;2022-12-10T17:14:24;5.10;99.90
2391;DHT22;22957;50.824;4.360;2022-12-10T17:16:53;5.30;99.90
2391;DHT22;22957;50.824;4.360;2022-12-10T17:19:21;5.20;99.90
2391;DHT22;22957;50.824;4.360;2022-12-10T17:21:47;5.40;99.90
2391;DHT22;22957;50.824;4.360;2022-12-10T17:24:13;5.20;99.90
2391;DHT22;22957;50.824;4.360;2022-12-10T17:26:43;5.10;99.90
2391;DHT22;22957;50.824;4.360;2022-12-10T17:29:15;5.20;99.90
2391;DHT22;22957;50.824;4.360;2022-12-10T17:31:43;5.40;99.90
2391;DHT22;22957;50.824;4.360;2022-12-10T17:34:10;5.30;99.90
2391;DHT22;22957;50.824;4.360;2022-12-10T17:36:37;5.00;99.90
2391;DHT22;22957;50.824;4.360;2022-12-10T17:39:04;5.60;99.90
2391;DHT22;22957;50.824;4.360;2022-12-10T17:41:32;5.60;99.90
2391;DHT22;22957;50.824;4.360;2022-12-10T17:44:04;5.80;99.90
2391;DHT22;22957;50.824;4.360;2022-12-10T17:46:30;5.60;99.90
2391;DHT22;22957;50.824;4.360;2022-12-10T17:48:56;5.10;99.90
2391;DHT22;22957;50.824;4.360;2022-12-10T17:51:22;4.70;99.90
2391;DHT22;22957;50.824;4.360;2022-12-10T17:53:47;4.80;99.90
2391;DHT22;22957;50.824;4.360;2022-12-10T17:56:17;5.00;99.90
2391;DHT22;22957;50.824;4.360;2022-12-10T17:58:45;4.90;99.90
2391;DHT22;22957;50.824;4.360;2022-12-10T18:01:11;5.00;99.90
2391;DHT22;22957;50.824;4.360;2022-12-10T18:03:37;5.60;99.90
2391;DHT22;22957;50.824;4.360;2022-12-10T18:06:04;5.50;99.90
2391;DHT22;22957;50.824;4.360;2022-12-10T18:08:35;5.60;99.90
2391;DHT22;22957;50.824;4.360;2022-12-10T18:11:02;5.60;99.90
2391;DHT22;22957;50.824;4.360;2022-12-10T18:13:27;5.50;99.90
2391;DHT22;22957;50.824;4.360;2022-12-10T18:15:53;5.70;99.90
2391;DHT22;22957;50.824;4.360;2022-12-10T18:18:19;5.60;99.90
2391;DHT22;22957;50.824;4.360;2022-12-10T18:20:45;6.10;99.90
2391;DHT22;22957;50.824;4.360;2022-12-10T18:23:11;6.20;99.90
2391;DHT22;22957;50.824;4.360;2022-12-10T18:25:38;6.10;99.90
2391;DHT22;22957;50.824;4.360;2022-12-10T18:30:50;6.10;99.90
2391;DHT22;22957;50.824;4.360;2022-12-10T18:33:16;5.60;99.90
2391;DHT22;22957;50.824;4.360;2022-12-10T18:35:43;5.50;99.90